sensor_id;sensor_type;location;lat;lon;timestamp;pressure;altitude;pressure_sealevel;temperature;humidity
52137;BME280;69622;49.570;10.986;2023-08-07T00:00:44;97667.91;;;11.90;100.00
52137;BME280;69622;49.570;10.986;2023-08-07T00:03:46;97668.34;;;11.86;100.00
52137;BME280;69622;49.570;10.986;2023-08-07T00:06:48;97675.59;;;11.92;100.00
52137;BME280;69622;49.570;10.986;2023-08-07T00:09:50;97666.13;;;12.01;100.00
52137;BME280;69622;49.570;10.986;2023-08-07T00:12:51;97671.00;;;12.13;100.00
52137;BME280;69622;49.570;10.986;2023-08-07T00:15:53;97674.31;;;12.15;100.00
52137;BME280;69622;49.570;10.986;2023-08-07T00:18:55;97678.63;;;11.87;100.00
52137;BME280;69622;49.570;10.986;2023-08-07T00:21:57;97675.88;;;11.89;100.00
52137;BME280;69622;49.570;10.986;2023-08-07T00:24:59;97672.69;;;11.95;100.00
52137;BME280;69622;49.570;10.986;2023-08-07T00:28:01;97679.41;;;11.97;100.00
52137;BME280;69622;49.570;10.986;2023-08-07T00:31:02;97673.13;;;11.90;100.00
52137;BME280;69622;49.570;10.986;2023-08-07T00:34:04;97670.53;;;11.81;100.00
52137;BME280;69622;49.570;10.986;2023-08-07T00:37:05;97686.97;;;11.72;100.00
52137;BME280;69622;49.570;10.986;2023-08-07T00:40:07;97682.34;;;11.85;100.00
52137;BME280;69622;49.570;10.986;2023-08-07T00:43:09;97679.41;;;11.78;100.00
52137;BME280;69622;49.570;10.986;2023-08-07T00:46:11;97678.72;;;11.76;100.00
52137;BME280;69622;49.570;10.986;2023-08-07T00:49:12;97684.66;;;11.68;100.00
52137;BME280;69622;49.570;10.986;2023-08-07T00:52:15;97692.84;;;11.64;100.00
52137;BME280;69622;49.570;10.986;2023-08-07T00:55:20;97700.00;;;11.72;100.00
52137;BME280;69622;49.570;10.986;2023-08-07T00:58:21;97693.41;;;11.77;100.00
52137;BME280;69622;49.570;10.986;2023-08-07T01:01:23;97693.94;;;11.52;100.00
52137;BME280;69622;49.570;10.986;2023-08-07T01:04:26;97703.00;;;11.57;100.00
52137;BME280;69622;49.570;10.986;2023-08-07T01:07:27;97700.25;;;11.49;100.00
52137;BME280;69622;49.570;10.986;2023-08-07T01:17:11;97704.66;;;11.58;100.00
52137;BME280;69622;49.570;10.986;2023-08-07T01:20:13;97713.25;;;11.49;100.00
52137;BME280;69622;49.570;10.986;2023-08-07T01:23:15;97716.44;;;11.53;100.00
52137;BME280;69622;49.570;10.986;2023-08-07T01:26:18;97717.38;;;11.52;100.00
52137;BME280;69622;49.570;10.986;2023-08-07T01:29:27;97716.53;;;11.51;100.00
52137;BME280;69622;49.570;10.986;2023-08-07T01:32:46;97734.38;;;11.46;100.00
52137;BME280;69622;49.570;10.986;2023-08-07T01:35:53;97732.47;;;11.58;100.00
52137;BME280;69622;49.570;10.986;2023-08-07T01:38:58;97732.19;;;11.61;100.00
52137;BME280;69622;49.570;10.986;2023-08-07T01:42:01;97734.94;;;11.59;100.00
52137;BME280;69622;49.570;10.986;2023-08-07T01:45:04;97739.03;;;11.62;100.00
52137;BME280;69622;49.570;10.986;2023-08-07T01:48:06;97742.03;;;11.38;100.00
52137;BME280;69622;49.570;10.986;2023-08-07T01:51:08;97742.88;;;11.38;100.00
52137;BME280;69622;49.570;10.986;2023-08-07T01:54:09;97747.28;;;11.57;100.00
52137;BME280;69622;49.570;10.986;2023-08-07T01:57:11;97751.34;;;11.50;100.00
52137;BME280;69622;49.570;10.986;2023-08-07T02:00:13;97756.25;;;11.34;100.00
52137;BME280;69622;49.570;10.986;2023-08-07T02:03:14;97762.72;;;11.39;100.00
52137;BME280;69622;49.570;10.986;2023-08-07T02:06:16;97763.56;;;11.40;100.00
52137;BME280;69622;49.570;10.986;2023-08-07T02:09:18;97763.53;;;11.50;100.00
52137;BME280;69622;49.570;10.986;2023-08-07T02:12:19;97761.50;;;11.44;100.00
52137;BME280;69622;49.570;10.986;2023-08-07T02:15:21;97768.47;;;11.43;100.00
52137;BME280;69622;49.570;10.986;2023-08-07T02:18:22;97770.22;;;11.33;100.00
52137;BME280;69622;49.570;10.986;2023-08-07T02:21:24;97770.47;;;11.20;100.00
52137;BME280;69622;49.570;10.986;2023-08-07T02:24:25;97775.44;;;11.23;100.00
52137;BME280;69622;49.570;10.986;2023-08-07T02:27:27;97774.06;;;11.29;100.00
52137;BME280;69622;49.570;10.986;2023-08-07T02:30:28;97774.75;;;11.31;100.00
52137;BME280;69622;49.570;10.986;2023-08-07T02:33:29;97785.41;;;11.18;100.00
52137;BME280;69622;49.570;10.986;2023-08-07T02:36:31;97783.63;;;11.19;100.00
52137;BME280;69622;49.570;10.986;2023-08-07T02:39:33;97781.84;;;11.19;100.00
52137;BME280;69622;49.570;10.986;2023-08-07T02:42:34;97791.19;;;11.31;100.00
52137;BME280;69622;49.570;10.986;2023-08-07T02:45:36;97785.97;;;11.22;100.00
52137;BME280;69622;49.570;10.986;2023-08-07T02:48:37;97794.97;;;11.18;100.00
52137;BME280;69622;49.570;10.986;2023-08-07T02:51:40;97798.84;;;11.23;100.00
52137;BME280;69622;49.570;10.986;2023-08-07T02:54:42;97792.97;;;11.21;100.00
52137;BME280;69622;49.570;10.986;2023-08-07T02:57:43;97789.91;;;11.16;100.00
52137;BME280;69622;49.570;10.986;2023-08-07T03:00:44;97793.88;;;11.10;100.00
52137;BME280;69622;49.570;10.986;2023-08-07T03:03:46;97802.09;;;11.06;100.00
52137;BME280;69622;49.570;10.986;2023-08-07T03:06:47;97801.28;;;11.15;100.00
52137;BME280;69622;49.570;10.986;2023-08-07T03:09:49;97808.13;;;11.16;100.00
52137;BME280;69622;49.570;10.986;2023-08-07T03:12:50;97811.91;;;11.02;100.00
52137;BME280;69622;49.570;10.986;2023-08-07T03:16:02;97818.25;;;11.19;100.00
52137;BME280;69622;49.570;10.986;2023-08-07T03:19:04;97822.91;;;11.16;100.00
52137;BME280;69622;49.570;10.986;2023-08-07T03:22:05;97818.41;;;11.18;100.00
52137;BME280;69622;49.570;10.986;2023-08-07T03:25:07;97823.50;;;11.29;100.00
52137;BME280;69622;49.570;10.986;2023-08-07T03:28:08;97819.69;;;10.93;100.00
52137;BME280;69622;49.570;10.986;2023-08-07T03:31:10;97824.53;;;11.07;100.00
52137;BME280;69622;49.570;10.986;2023-08-07T03:34:11;97829.47;;;11.10;100.00
52137;BME280;69622;49.570;10.986;2023-08-07T03:37:13;97838.75;;;11.03;100.00
52137;BME280;69622;49.570;10.986;2023-08-07T03:40:14;97844.53;;;11.06;100.00
52137;BME280;69622;49.570;10.986;2023-08-07T03:43:16;97845.91;;;11.10;100.00
52137;BME280;69622;49.570;10.986;2023-08-07T03:46:17;97848.66;;;11.19;100.00
52137;BME280;69622;49.570;10.986;2023-08-07T03:49:19;97848.53;;;11.20;100.00
52137;BME280;69622;49.570;10.986;2023-08-07T03:52:20;97852.41;;;11.26;100.00
52137;BME280;69622;49.570;10.986;2023-08-07T03:55:22;97853.72;;;11.10;100.00
52137;BME280;69622;49.570;10.986;2023-08-07T03:58:23;97850.09;;;11.02;100.00
52137;BME280;69622;49.570;10.986;2023-08-07T04:01:25;97860.31;;;11.15;100.00
52137;BME280;69622;49.570;10.986;2023-08-07T04:04:26;97862.75;;;11.06;100.00
52137;BME280;69622;49.570;10.986;2023-08-07T04:07:31;97871.19;;;10.99;100.00
52137;BME280;69622;49.570;10.986;2023-08-07T04:10:34;97877.72;;;10.93;100.00
52137;BME280;69622;49.570;10.986;2023-08-07T04:13:36;97885.75;;;11.11;100.00
52137;BME280;69622;49.570;10.986;2023-08-07T04:16:37;97885.00;;;10.99;100.00
52137;BME280;69622;49.570;10.986;2023-08-07T04:19:39;97890.28;;;11.09;100.00
52137;BME280;69622;49.570;10.986;2023-08-07T04:22:40;97891.34;;;11.06;100.00
52137;BME280;69622;49.570;10.986;2023-08-07T04:25:42;97896.53;;;11.27;100.00
52137;BME280;69622;49.570;10.986;2023-08-07T04:28:43;97898.91;;;11.09;100.00
52137;BME280;69622;49.570;10.986;2023-08-07T04:31:45;97908.34;;;11.10;100.00
52137;BME280;69622;49.570;10.986;2023-08-07T04:34:46;97898.84;;;11.00;100.00
52137;BME280;69622;49.570;10.986;2023-08-07T04:37:48;97901.38;;;11.11;100.00
52137;BME280;69622;49.570;10.986;2023-08-07T04:40:50;97905.38;;;10.94;100.00
52137;BME280;69622;49.570;10.986;2023-08-07T04:43:51;97910.19;;;10.99;100.00
52137;BME280;69622;49.570;10.986;2023-08-07T04:46:53;97911.28;;;10.96;100.00
52137;BME280;69622;49.570;10.986;2023-08-07T04:49:55;97917.38;;;11.06;100.00
52137;BME280;69622;49.570;10.986;2023-08-07T04:52:56;97908.41;;;10.99;100.00
52137;BME280;69622;49.570;10.986;2023-08-07T04:56:02;97912.66;;;11.00;100.00
52137;BME280;69622;49.570;10.986;2023-08-07T04:59:04;97914.91;;;11.05;100.00
52137;BME280;69622;49.570;10.986;2023-08-07T05:02:05;97919.38;;;11.03;100.00
52137;BME280;69622;49.570;10.986;2023-08-07T05:05:07;97928.22;;;10.91;100.00
52137;BME280;69622;49.570;10.986;2023-08-07T05:08:11;97928.38;;;10.89;100.00
52137;BME280;69622;49.570;10.986;2023-08-07T05:11:13;97930.50;;;10.84;100.00
52137;BME280;69622;49.570;10.986;2023-08-07T05:14:14;97934.63;;;10.87;100.00
52137;BME280;69622;49.570;10.986;2023-08-07T05:17:16;97928.91;;;11.14;100.00
52137;BME280;69622;49.570;10.986;2023-08-07T05:20:17;97933.81;;;11.07;100.00
52137;BME280;69622;49.570;10.986;2023-08-07T05:23:19;97933.00;;;11.06;100.00
52137;BME280;69622;49.570;10.986;2023-08-07T05:26:21;97938.41;;;11.03;100.00
52137;BME280;69622;49.570;10.986;2023-08-07T05:29:22;97934.81;;;10.95;100.00
52137;BME280;69622;49.570;10.986;2023-08-07T05:32:24;97933.78;;;10.86;100.00
52137;BME280;69622;49.570;10.986;2023-08-07T05:35:25;97951.25;;;10.95;100.00
52137;BME280;69622;49.570;10.986;2023-08-07T05:38:27;97947.63;;;10.87;100.00
52137;BME280;69622;49.570;10.986;2023-08-07T05:41:28;97964.34;;;11.05;100.00
52137;BME280;69622;49.570;10.986;2023-08-07T05:44:32;97953.53;;;10.89;100.00
52137;BME280;69622;49.570;10.986;2023-08-07T05:47:34;97957.16;;;10.97;100.00
52137;BME280;69622;49.570;10.986;2023-08-07T05:50:35;97957.81;;;10.90;100.00
52137;BME280;69622;49.570;10.986;2023-08-07T05:53:37;97960.00;;;10.94;100.00
52137;BME280;69622;49.570;10.986;2023-08-07T05:56:38;97967.25;;;10.91;100.00
52137;BME280;69622;49.570;10.986;2023-08-07T05:59:40;97963.34;;;10.85;100.00
52137;BME280;69622;49.570;10.986;2023-08-07T06:02:41;97971.06;;;11.07;100.00
52137;BME280;69622;49.570;10.986;2023-08-07T06:05:43;97973.16;;;10.93;100.00
52137;BME280;69622;49.570;10.986;2023-08-07T06:08:44;97975.41;;;10.86;100.00
52137;BME280;69622;49.570;10.986;2023-08-07T06:11:46;97972.94;;;10.85;100.00
52137;BME280;69622;49.570;10.986;2023-08-07T06:14:47;97981.66;;;10.95;100.00
52137;BME280;69622;49.570;10.986;2023-08-07T06:17:48;97975.41;;;10.86;100.00
52137;BME280;69622;49.570;10.986;2023-08-07T06:20:52;97979.47;;;10.79;100.00
52137;BME280;69622;49.570;10.986;2023-08-07T06:23:54;97986.16;;;10.93;100.00
52137;BME280;69622;49.570;10.986;2023-08-07T06:26:55;97989.06;;;10.99;100.00
52137;BME280;69622;49.570;10.986;2023-08-07T06:29:57;97982.34;;;10.97;100.00
52137;BME280;69622;49.570;10.986;2023-08-07T06:32:59;97994.22;;;11.10;100.00
52137;BME280;69622;49.570;10.986;2023-08-07T06:36:01;97997.38;;;11.14;100.00
52137;BME280;69622;49.570;10.986;2023-08-07T06:39:03;97999.59;;;10.98;100.00
52137;BME280;69622;49.570;10.986;2023-08-07T06:42:05;97996.25;;;11.07;100.00
52137;BME280;69622;49.570;10.986;2023-08-07T06:45:07;98001.59;;;11.05;100.00
52137;BME280;69622;49.570;10.986;2023-08-07T06:48:08;98007.84;;;11.03;100.00
52137;BME280;69622;49.570;10.986;2023-08-07T06:51:10;98000.69;;;10.95;100.00
52137;BME280;69622;49.570;10.986;2023-08-07T06:54:11;98005.38;;;11.01;100.00
52137;BME280;69622;49.570;10.986;2023-08-07T06:57:13;98012.59;;;11.19;100.00
52137;BME280;69622;49.570;10.986;2023-08-07T07:00:15;98009.88;;;11.20;100.00
52137;BME280;69622;49.570;10.986;2023-08-07T07:03:17;98010.22;;;11.06;100.00
52137;BME280;69622;49.570;10.986;2023-08-07T07:06:19;98024.00;;;10.86;100.00
52137;BME280;69622;49.570;10.986;2023-08-07T07:09:21;98012.81;;;11.27;100.00
52137;BME280;69622;49.570;10.986;2023-08-07T07:12:23;98009.50;;;11.04;100.00
52137;BME280;69622;49.570;10.986;2023-08-07T07:15:25;98023.78;;;11.09;100.00
52137;BME280;69622;49.570;10.986;2023-08-07T07:18:26;98028.59;;;11.14;100.00
52137;BME280;69622;49.570;10.986;2023-08-07T07:21:28;98031.63;;;10.98;100.00
52137;BME280;69622;49.570;10.986;2023-08-07T07:24:29;98028.44;;;11.06;100.00
52137;BME280;69622;49.570;10.986;2023-08-07T07:27:31;98029.94;;;11.08;100.00
52137;BME280;69622;49.570;10.986;2023-08-07T07:30:32;98040.78;;;11.14;100.00
52137;BME280;69622;49.570;10.986;2023-08-07T07:33:34;98044.16;;;11.25;100.00
52137;BME280;69622;49.570;10.986;2023-08-07T07:36:39;98047.66;;;11.15;100.00
52137;BME280;69622;49.570;10.986;2023-08-07T07:39:41;98057.06;;;11.27;100.00
52137;BME280;69622;49.570;10.986;2023-08-07T07:42:43;98060.16;;;11.21;100.00
52137;BME280;69622;49.570;10.986;2023-08-07T07:45:44;98068.94;;;11.40;100.00
52137;BME280;69622;49.570;10.986;2023-08-07T07:48:46;98063.53;;;11.32;100.00
52137;BME280;69622;49.570;10.986;2023-08-07T07:51:47;98071.59;;;11.29;100.00
52137;BME280;69622;49.570;10.986;2023-08-07T07:54:50;98072.28;;;11.31;100.00
52137;BME280;69622;49.570;10.986;2023-08-07T07:57:52;98072.94;;;11.24;100.00
52137;BME280;69622;49.570;10.986;2023-08-07T08:00:53;98090.59;;;11.41;100.00
52137;BME280;69622;49.570;10.986;2023-08-07T08:03:55;98083.59;;;11.21;100.00
52137;BME280;69622;49.570;10.986;2023-08-07T08:06:57;98091.09;;;11.56;100.00
52137;BME280;69622;49.570;10.986;2023-08-07T08:09:58;98088.69;;;11.43;100.00
52137;BME280;69622;49.570;10.986;2023-08-07T08:13:00;98098.81;;;11.46;100.00
52137;BME280;69622;49.570;10.986;2023-08-07T08:16:02;98106.38;;;11.28;100.00
52137;BME280;69622;49.570;10.986;2023-08-07T08:19:03;98108.09;;;11.39;100.00
52137;BME280;69622;49.570;10.986;2023-08-07T08:22:05;98111.44;;;11.30;100.00
52137;BME280;69622;49.570;10.986;2023-08-07T08:25:07;98115.09;;;11.38;100.00
52137;BME280;69622;49.570;10.986;2023-08-07T08:28:09;98119.97;;;11.32;100.00
52137;BME280;69622;49.570;10.986;2023-08-07T08:31:10;98127.41;;;11.36;100.00
52137;BME280;69622;49.570;10.986;2023-08-07T08:34:12;98130.84;;;11.37;100.00
52137;BME280;69622;49.570;10.986;2023-08-07T08:37:13;98121.47;;;11.34;100.00
52137;BME280;69622;49.570;10.986;2023-08-07T08:40:15;98134.28;;;11.58;100.00
52137;BME280;69622;49.570;10.986;2023-08-07T08:43:19;98129.75;;;11.39;100.00
52137;BME280;69622;49.570;10.986;2023-08-07T08:46:22;98146.22;;;11.40;100.00
52137;BME280;69622;49.570;10.986;2023-08-07T08:49:36;98139.78;;;11.44;100.00
52137;BME280;69622;49.570;10.986;2023-08-07T08:52:43;98142.88;;;11.70;100.00
52137;BME280;69622;49.570;10.986;2023-08-07T08:55:48;98144.28;;;11.42;100.00
52137;BME280;69622;49.570;10.986;2023-08-07T08:58:50;98153.66;;;11.33;100.00
52137;BME280;69622;49.570;10.986;2023-08-07T09:01:52;98160.53;;;11.34;100.00
52137;BME280;69622;49.570;10.986;2023-08-07T09:04:54;98153.19;;;11.39;100.00
52137;BME280;69622;49.570;10.986;2023-08-07T09:07:56;98153.72;;;11.54;100.00
52137;BME280;69622;49.570;10.986;2023-08-07T09:10:58;98153.94;;;11.51;100.00
52137;BME280;69622;49.570;10.986;2023-08-07T09:14:00;98152.00;;;11.64;100.00
52137;BME280;69622;49.570;10.986;2023-08-07T09:17:03;98163.63;;;11.60;100.00
52137;BME280;69622;49.570;10.986;2023-08-07T09:20:09;98165.22;;;11.73;100.00
52137;BME280;69622;49.570;10.986;2023-08-07T09:23:15;98161.44;;;11.45;100.00
52137;BME280;69622;49.570;10.986;2023-08-07T09:26:22;98162.28;;;11.66;100.00
52137;BME280;69622;49.570;10.986;2023-08-07T09:29:26;98171.69;;;11.57;100.00
52137;BME280;69622;49.570;10.986;2023-08-07T09:32:28;98169.41;;;11.64;100.00
52137;BME280;69622;49.570;10.986;2023-08-07T09:35:31;98176.31;;;11.54;100.00
52137;BME280;69622;49.570;10.986;2023-08-07T09:38:33;98178.84;;;11.65;100.00
52137;BME280;69622;49.570;10.986;2023-08-07T09:41:34;98197.47;;;11.60;100.00
52137;BME280;69622;49.570;10.986;2023-08-07T09:44:37;98193.25;;;11.48;100.00
52137;BME280;69622;49.570;10.986;2023-08-07T09:47:38;98195.56;;;11.62;100.00
52137;BME280;69622;49.570;10.986;2023-08-07T09:50:40;98203.06;;;11.88;100.00
52137;BME280;69622;49.570;10.986;2023-08-07T09:53:41;98200.34;;;11.78;100.00
52137;BME280;69622;49.570;10.986;2023-08-07T09:56:43;98203.06;;;11.88;100.00
52137;BME280;69622;49.570;10.986;2023-08-07T09:59:49;98208.97;;;12.11;100.00
52137;BME280;69622;49.570;10.986;2023-08-07T10:02:51;98207.81;;;12.04;100.00
52137;BME280;69622;49.570;10.986;2023-08-07T10:05:54;98211.31;;;11.93;100.00
52137;BME280;69622;49.570;10.986;2023-08-07T10:08:56;98206.53;;;11.98;100.00
52137;BME280;69622;49.570;10.986;2023-08-07T10:11:58;98203.50;;;11.93;100.00
52137;BME280;69622;49.570;10.986;2023-08-07T10:15:00;98213.66;;;11.96;100.00
52137;BME280;69622;49.570;10.986;2023-08-07T10:18:02;98212.09;;;12.05;100.00
52137;BME280;69622;49.570;10.986;2023-08-07T10:21:05;98211.88;;;11.96;100.00
52137;BME280;69622;49.570;10.986;2023-08-07T10:24:09;98216.84;;;12.20;100.00
52137;BME280;69622;49.570;10.986;2023-08-07T10:27:12;98221.88;;;12.33;100.00
52137;BME280;69622;49.570;10.986;2023-08-07T10:30:18;98223.56;;;12.23;100.00
52137;BME280;69622;49.570;10.986;2023-08-07T10:33:21;98234.84;;;12.03;100.00
52137;BME280;69622;49.570;10.986;2023-08-07T10:36:32;98233.25;;;12.11;100.00
52137;BME280;69622;49.570;10.986;2023-08-07T10:39:33;98230.91;;;12.08;100.00
52137;BME280;69622;49.570;10.986;2023-08-07T10:42:51;98222.22;;;12.28;100.00
52137;BME280;69622;49.570;10.986;2023-08-07T10:45:53;98229.81;;;12.62;100.00
52137;BME280;69622;49.570;10.986;2023-08-07T10:48:55;98228.59;;;12.66;100.00
52137;BME280;69622;49.570;10.986;2023-08-07T10:52:12;98227.59;;;12.57;100.00
52137;BME280;69622;49.570;10.986;2023-08-07T10:55:16;98230.88;;;12.80;100.00
52137;BME280;69622;49.570;10.986;2023-08-07T10:58:33;98223.31;;;12.87;100.00
52137;BME280;69622;49.570;10.986;2023-08-07T11:04:40;98246.06;;;12.75;100.00
52137;BME280;69622;49.570;10.986;2023-08-07T11:07:41;98237.94;;;12.99;100.00
52137;BME280;69622;49.570;10.986;2023-08-07T11:10:44;98244.13;;;12.68;100.00
52137;BME280;69622;49.570;10.986;2023-08-07T11:13:46;98245.44;;;12.93;100.00
52137;BME280;69622;49.570;10.986;2023-08-07T11:16:48;98240.50;;;12.89;100.00
52137;BME280;69622;49.570;10.986;2023-08-07T11:19:50;98242.72;;;12.33;100.00
52137;BME280;69622;49.570;10.986;2023-08-07T11:22:51;98250.16;;;12.68;100.00
52137;BME280;69622;49.570;10.986;2023-08-07T11:25:53;98252.94;;;12.76;100.00
52137;BME280;69622;49.570;10.986;2023-08-07T11:28:55;98256.41;;;12.86;100.00
52137;BME280;69622;49.570;10.986;2023-08-07T11:31:58;98250.16;;;12.99;100.00
52137;BME280;69622;49.570;10.986;2023-08-07T11:35:00;98252.72;;;12.89;100.00
52137;BME280;69622;49.570;10.986;2023-08-07T11:38:04;98257.91;;;12.79;100.00
52137;BME280;69622;49.570;10.986;2023-08-07T11:41:06;98252.31;;;12.94;100.00
52137;BME280;69622;49.570;10.986;2023-08-07T11:44:08;98259.22;;;12.95;100.00
52137;BME280;69622;49.570;10.986;2023-08-07T11:47:10;98251.16;;;12.77;100.00
52137;BME280;69622;49.570;10.986;2023-08-07T11:50:11;98258.97;;;12.77;100.00
52137;BME280;69622;49.570;10.986;2023-08-07T11:53:13;98253.16;;;12.94;100.00
52137;BME280;69622;49.570;10.986;2023-08-07T11:56:15;98264.72;;;12.71;100.00
52137;BME280;69622;49.570;10.986;2023-08-07T11:59:17;98263.38;;;12.76;100.00
52137;BME280;69622;49.570;10.986;2023-08-07T12:02:25;98263.13;;;12.79;100.00
52137;BME280;69622;49.570;10.986;2023-08-07T12:05:27;98270.81;;;12.81;100.00
52137;BME280;69622;49.570;10.986;2023-08-07T12:08:36;98279.13;;;12.96;100.00
52137;BME280;69622;49.570;10.986;2023-08-07T12:11:38;98278.72;;;13.00;100.00
52137;BME280;69622;49.570;10.986;2023-08-07T12:14:40;98273.41;;;13.11;100.00
52137;BME280;69622;49.570;10.986;2023-08-07T12:17:41;98271.94;;;13.18;100.00
52137;BME280;69622;49.570;10.986;2023-08-07T12:20:43;98273.56;;;13.10;100.00
52137;BME280;69622;49.570;10.986;2023-08-07T12:23:45;98280.66;;;13.08;100.00
52137;BME280;69622;49.570;10.986;2023-08-07T12:26:49;98286.78;;;12.87;100.00
52137;BME280;69622;49.570;10.986;2023-08-07T12:29:50;98285.69;;;12.90;100.00
52137;BME280;69622;49.570;10.986;2023-08-07T12:32:51;98288.69;;;12.85;100.00
52137;BME280;69622;49.570;10.986;2023-08-07T12:35:53;98290.59;;;12.83;100.00
52137;BME280;69622;49.570;10.986;2023-08-07T12:38:55;98292.94;;;12.86;100.00
52137;BME280;69622;49.570;10.986;2023-08-07T12:41:56;98292.88;;;12.98;100.00
52137;BME280;69622;49.570;10.986;2023-08-07T12:45:02;98300.56;;;12.99;100.00
52137;BME280;69622;49.570;10.986;2023-08-07T12:48:04;98300.03;;;12.75;100.00
52137;BME280;69622;49.570;10.986;2023-08-07T12:51:05;98300.03;;;12.75;100.00
52137;BME280;69622;49.570;10.986;2023-08-07T12:54:07;98301.81;;;12.74;100.00
52137;BME280;69622;49.570;10.986;2023-08-07T12:57:08;98303.16;;;12.69;100.00
52137;BME280;69622;49.570;10.986;2023-08-07T13:00:11;98303.56;;;12.64;100.00
52137;BME280;69622;49.570;10.986;2023-08-07T13:03:15;98309.81;;;12.52;100.00
52137;BME280;69622;49.570;10.986;2023-08-07T13:06:17;98297.94;;;12.69;100.00
52137;BME280;69622;49.570;10.986;2023-08-07T13:09:18;98302.97;;;12.81;100.00
52137;BME280;69622;49.570;10.986;2023-08-07T13:12:20;98305.47;;;12.93;100.00
52137;BME280;69622;49.570;10.986;2023-08-07T13:15:21;98305.56;;;12.81;100.00
52137;BME280;69622;49.570;10.986;2023-08-07T13:18:24;98308.22;;;12.91;100.00
52137;BME280;69622;49.570;10.986;2023-08-07T13:21:25;98313.69;;;12.88;100.00
52137;BME280;69622;49.570;10.986;2023-08-07T13:24:27;98309.69;;;12.84;100.00
52137;BME280;69622;49.570;10.986;2023-08-07T13:27:29;98320.13;;;12.84;100.00
52137;BME280;69622;49.570;10.986;2023-08-07T13:30:31;98318.91;;;12.88;100.00
52137;BME280;69622;49.570;10.986;2023-08-07T13:33:37;98312.19;;;12.85;100.00
52137;BME280;69622;49.570;10.986;2023-08-07T13:36:39;98323.69;;;12.62;100.00
52137;BME280;69622;49.570;10.986;2023-08-07T13:39:41;98327.94;;;12.53;100.00
52137;BME280;69622;49.570;10.986;2023-08-07T13:42:42;98342.47;;;12.56;100.00
52137;BME280;69622;49.570;10.986;2023-08-07T13:45:44;98335.44;;;12.68;100.00
52137;BME280;69622;49.570;10.986;2023-08-07T13:48:46;98343.00;;;12.71;100.00
52137;BME280;69622;49.570;10.986;2023-08-07T13:51:47;98346.06;;;12.55;100.00
52137;BME280;69622;49.570;10.986;2023-08-07T13:54:50;98347.09;;;12.64;100.00
52137;BME280;69622;49.570;10.986;2023-08-07T13:57:51;98354.75;;;12.44;100.00
52137;BME280;69622;49.570;10.986;2023-08-07T14:00:53;98356.63;;;12.53;100.00
52137;BME280;69622;49.570;10.986;2023-08-07T14:03:55;98362.38;;;12.36;100.00
52137;BME280;69622;49.570;10.986;2023-08-07T14:06:57;98362.66;;;12.54;100.00
52137;BME280;69622;49.570;10.986;2023-08-07T14:09:59;98358.69;;;12.59;100.00
52137;BME280;69622;49.570;10.986;2023-08-07T14:13:00;98360.34;;;12.60;100.00
52137;BME280;69622;49.570;10.986;2023-08-07T14:16:01;98370.72;;;12.72;100.00
52137;BME280;69622;49.570;10.986;2023-08-07T14:19:03;98376.06;;;12.70;100.00
52137;BME280;69622;49.570;10.986;2023-08-07T14:22:05;98380.22;;;12.73;100.00
52137;BME280;69622;49.570;10.986;2023-08-07T14:25:06;98389.56;;;12.75;100.00
52137;BME280;69622;49.570;10.986;2023-08-07T14:28:08;98391.78;;;13.01;100.00
52137;BME280;69622;49.570;10.986;2023-08-07T14:31:10;98393.50;;;12.70;100.00
52137;BME280;69622;49.570;10.986;2023-08-07T14:34:11;98396.91;;;12.81;100.00
52137;BME280;69622;49.570;10.986;2023-08-07T14:37:13;98402.81;;;12.63;100.00
52137;BME280;69622;49.570;10.986;2023-08-07T14:40:14;98415.03;;;12.83;100.00
52137;BME280;69622;49.570;10.986;2023-08-07T14:43:16;98412.94;;;12.98;100.00
52137;BME280;69622;49.570;10.986;2023-08-07T14:46:17;98401.91;;;12.94;100.00
52137;BME280;69622;49.570;10.986;2023-08-07T14:49:22;98399.78;;;13.09;100.00
52137;BME280;69622;49.570;10.986;2023-08-07T14:52:23;98407.50;;;12.89;100.00
52137;BME280;69622;49.570;10.986;2023-08-07T14:55:25;98402.41;;;12.88;100.00
52137;BME280;69622;49.570;10.986;2023-08-07T14:58:26;98404.56;;;13.04;100.00
52137;BME280;69622;49.570;10.986;2023-08-07T15:01:28;98409.59;;;12.75;100.00
52137;BME280;69622;49.570;10.986;2023-08-07T15:04:29;98412.94;;;13.18;100.00
52137;BME280;69622;49.570;10.986;2023-08-07T15:07:31;98407.44;;;13.22;100.00
52137;BME280;69622;49.570;10.986;2023-08-07T15:10:32;98415.13;;;13.23;100.00
52137;BME280;69622;49.570;10.986;2023-08-07T15:13:34;98412.06;;;13.39;100.00
52137;BME280;69622;49.570;10.986;2023-08-07T15:16:35;98404.47;;;13.26;100.00
52137;BME280;69622;49.570;10.986;2023-08-07T15:19:38;98401.78;;;13.47;100.00
52137;BME280;69622;49.570;10.986;2023-08-07T15:22:40;98399.00;;;13.39;100.00
52137;BME280;69622;49.570;10.986;2023-08-07T15:25:41;98403.84;;;13.43;100.00
52137;BME280;69622;49.570;10.986;2023-08-07T15:28:43;98407.16;;;13.45;100.00
52137;BME280;69622;49.570;10.986;2023-08-07T15:31:46;98403.31;;;13.49;100.00
52137;BME280;69622;49.570;10.986;2023-08-07T15:34:48;98407.47;;;13.62;100.00
52137;BME280;69622;49.570;10.986;2023-08-07T15:37:50;98406.72;;;14.00;100.00
52137;BME280;69622;49.570;10.986;2023-08-07T15:40:51;98408.69;;;14.17;100.00
52137;BME280;69622;49.570;10.986;2023-08-07T15:43:53;98397.84;;;14.41;100.00
52137;BME280;69622;49.570;10.986;2023-08-07T15:46:55;98398.69;;;14.61;100.00
52137;BME280;69622;49.570;10.986;2023-08-07T15:49:57;98398.00;;;14.49;100.00